Map

Track Data

SID SEASON NUMBER BASIN SUBBASIN NAME ISO_TIME NATURE LAT LON WMO_WIND WMO_PRES WMO_AGENCY TRACK_TYPE DIST2LAND LANDFALL IFLAG USA_AGENCY USA_ATCF_ID USA_LAT USA_LON USA_RECORD USA_STATUS USA_WIND USA_PRES USA_SSHS USA_R34_NE USA_R34_SE USA_R34_SW USA_R34_NW USA_R50_NE USA_R50_SE USA_R50_SW USA_R50_NW USA_R64_NE USA_R64_SE USA_R64_SW USA_R64_NW USA_POCI USA_ROCI USA_RMW USA_EYE TOKYO_LAT TOKYO_LON TOKYO_GRADE TOKYO_WIND TOKYO_PRES TOKYO_R50_DIR TOKYO_R50_LONG TOKYO_R50_SHORT TOKYO_R30_DIR TOKYO_R30_LONG TOKYO_R30_SHORT TOKYO_LAND CMA_LAT CMA_LON CMA_CAT CMA_WIND CMA_PRES HKO_LAT HKO_LON HKO_CAT HKO_WIND HKO_PRES NEWDELHI_LAT NEWDELHI_LON NEWDELHI_GRADE NEWDELHI_WIND NEWDELHI_PRES NEWDELHI_CI NEWDELHI_DP NEWDELHI_POCI REUNION_LAT REUNION_LON REUNION_TYPE REUNION_WIND REUNION_PRES REUNION_TNUM REUNION_CI REUNION_RMW REUNION_R34_NE REUNION_R34_SE REUNION_R34_SW REUNION_R34_NW REUNION_R50_NE REUNION_R50_SE REUNION_R50_SW REUNION_R50_NW REUNION_R64_NE REUNION_R64_SE REUNION_R64_SW REUNION_R64_NW BOM_LAT BOM_LON BOM_TYPE BOM_WIND BOM_PRES BOM_TNUM BOM_CI BOM_RMW BOM_R34_NE BOM_R34_SE BOM_R34_SW BOM_R34_NW BOM_R50_NE BOM_R50_SE BOM_R50_SW BOM_R50_NW BOM_R64_NE BOM_R64_SE BOM_R64_SW BOM_R64_NW BOM_ROCI BOM_POCI BOM_EYE BOM_POS_METHOD BOM_PRES_METHOD NADI_LAT NADI_LON NADI_CAT NADI_WIND NADI_PRES WELLINGTON_LAT WELLINGTON_LON WELLINGTON_WIND WELLINGTON_PRES DS824_LAT DS824_LON DS824_STAGE DS824_WIND DS824_PRES TD9636_LAT TD9636_LON TD9636_STAGE TD9636_WIND TD9636_PRES TD9635_LAT TD9635_LON TD9635_WIND TD9635_PRES TD9635_ROCI NEUMANN_LAT NEUMANN_LON NEUMANN_CLASS NEUMANN_WIND NEUMANN_PRES MLC_LAT MLC_LON MLC_CLASS MLC_WIND MLC_PRES USA_GUST BOM_GUST BOM_GUST_PER REUNION_GUST REUNION_GUST_PER USA_SEAHGT USA_SEARAD_NE USA_SEARAD_SE USA_SEARAD_SW USA_SEARAD_NW STORM_SPEED STORM_DIR
2018096S15172 2018 19 SP MM KENI 2018-04-06 06:00:00 DS -14.9000 171.900 main 466 425 O_____________ jtwc_sh SH192018 -14.9000 171.900 LO 20 1008 -3 1007 185 50 9 216
2018096S15172 2018 19 SP MM KENI 2018-04-06 09:00:00 DS -15.2576 171.630 main 421 398 P_____________ SH192018 -15.2576 171.630 LO 20 1008 -3 1007 185 50 7 224
2018096S15172 2018 19 SP MM KENI 2018-04-06 12:00:00 DS -15.4000 171.400 main 398 387 O_____________ jtwc_sh SH192018 -15.4000 171.400 LO 20 1008 -3 1007 185 50 4 277
2018096S15172 2018 19 SP MM KENI 2018-04-06 15:00:00 DS -15.2150 171.247 main 384 384 P_____________ SH192018 -15.2150 171.247 LO 22 1007 -3 1007 185 50 4 334
2018096S15172 2018 19 SP MM KENI 2018-04-06 18:00:00 TS -15.0000 171.200 main 392 392 O_____________ jtwc_sh SH192018 -15.0000 171.200 TD 25 1006 -1 1007 185 50 1 19
2018096S15172 2018 19 SP MM KENI 2018-04-06 21:00:00 TS -15.0750 171.277 main 398 394 P_____________ SH192018 -15.0750 171.277 TD 27 1005 -1 1007 185 50 4 147
2018096S15172 2018 19 SP MM KENI 2018-04-07 00:00:00 TS -15.3000 171.400 main 401 395 O_____________ jtwc_sh SH192018 -15.3000 171.400 TD 30 1004 -1 1007 185 50 5 160
2018096S15172 2018 19 SP MM KENI 2018-04-07 03:00:00 TS -15.5625 171.458 main 403 397 P_____________ SH192018 -15.5625 171.458 TD 30 1004 -1 1007 185 50 6 171
2018096S15172 2018 19 SP MM KENI 2018-04-07 06:00:00 TS -15.9000 171.500 main 397 395 O_____________ jtwc_sh SH192018 -15.9000 171.500 TD 30 1004 -1 1007 185 50 8 171
2018096S15172 2018 19 SP MM KENI 2018-04-07 09:00:00 TS -16.3150 171.580 main 405 405 P_____________ SH192018 -16.3150 171.580 TD 30 1004 -1 1007 192 50 8 173
2018096S15172 2018 19 SP MM KENI 2018-04-07 12:00:00 TS -16.7000 171.600 main 405 395 O_____________ jtwc_sh SH192018 -16.7000 171.600 TD 30 1004 -1 1008 200 50 6 184
2018096S15172 2018 19 SP MM KENI 2018-04-07 15:00:00 TS -16.9448 171.525 main 395 376 P_____________ SH192018 -16.9448 171.525 TD 30 1004 -1 1008 200 45 5 216
2018096S15172 2018 19 SP MM KENI 2018-04-07 18:00:00 TS -17.1000 171.300 main 376 336 O_____________ jtwc_sh SH192018 -17.1000 171.300 TD 30 1004 -1 1008 200 40 7 244
2018096S15172 2018 19 SP MM KENI 2018-04-07 21:00:00 TS -17.2679 170.843 main 328 287 P_____________ SH192018 -17.2679 170.843 TD 30 1003 -1 1008 200 40 9 257
2018096S15172 2018 19 SP MM KENI 2018-04-08 00:00:00 TS -17.3000 170.400 main 287 271 O_____________ jtwc_sh SH192018 -17.3000 170.400 TD 30 1003 -1 1008 200 40 6 284
2018096S15172 2018 19 SP MM KENI 2018-04-08 03:00:00 TS -17.1282 170.273 main 271 256 P_____________ SH192018 -17.1282 170.273 TD 30 1003 -1 1008 200 40 5 337
2018096S15172 2018 19 SP MM KENI 2018-04-08 06:00:00 TS -16.8000 170.180 30 997 nadi main 256 234 O_____________ jtwc_sh SH192018 -16.8000 170.200 TD 30 1003 -1 1008 200 40 -16.8000 170.100 -1 30 997 8 342
2018096S15172 2018 19 SP MM KENI 2018-04-08 09:00:00 TS -16.3867 170.014 main 234 234 O______I______ jtwc_sh SH192018 -16.4000 170.000 TD 30 1003 -1 1008 200 40 -16.3600 170.042 32 996 6 0
2018096S15172 2018 19 SP MM KENI 2018-04-08 12:00:00 TS -16.2143 170.157 35 995 nadi main 256 256 O_____________ jtwc_sh SH192018 -16.3000 170.200 TD 30 1003 -1 1008 200 40 -16.1000 170.100 35 995 3 55
2018096S15172 2018 19 SP MM KENI 2018-04-08 15:00:00 TS -16.1957 170.303 main 267 267 P______I______ SH192018 -16.2588 170.259 TD 32 1002 -1 1007 200 37 -16.1325 170.347 37 992 4 103
2018096S15172 2018 19 SP MM KENI 2018-04-08 18:00:00 TS -16.3000 170.550 40 990 nadi main 298 288 O_____________ jtwc_sh SH192018 -16.3000 170.400 TS 35 1001 0 90 100 70 90 1007 200 35 -16.3000 170.700 40 990 7 108
2018096S15172 2018 19 SP MM KENI 2018-04-08 21:00:00 TS -16.4025 170.951 main 341 341 P______I______ SH192018 -16.4278 170.890 TS 37 999 0 95 105 75 95 1007 200 32 -16.3773 171.013 42 987 9 106
2018096S15172 2018 19 SP MM KENI 2018-04-09 00:00:00 TS -16.5500 171.450 45 985 nadi main 394 394 O_____________ jtwc_sh SH192018 -16.6000 171.500 TS 40 997 0 100 110 80 100 1007 200 30 -16.5000 171.400 45 985 10 110
2018096S15172 2018 19 SP MM KENI 2018-04-09 03:00:00 TS -16.7423 171.949 main 437 437 P______I______ SH192018 -16.7421 171.985 TS 42 997 0 100 110 85 100 1007 200 30 -16.7425 171.912 50 982 11 112
2018096S15172 2018 19 SP MM KENI 2018-04-09 06:00:00 TS -16.9500 172.500 55 980 nadi main 501 446 O_____________ jtwc_sh SH192018 -16.9000 172.500 TS 45 997 0 100 110 90 100 1007 200 30 -17.0000 172.500 55 980 12 109
2018096S15172 2018 19 SP MM KENI 2018-04-09 09:00:00 TS -17.1173 173.095 main 446 379 P______I______ SH192018 -17.0773 173.113 TS 50 995 0 115 125 95 100 34 37 24 24 1007 257 27 -17.1572 173.078 57 977 12 106
2018096S15172 2018 19 SP MM KENI 2018-04-09 12:00:00 TS -17.3000 173.750 60 975 nadi main 368 301 O_____________ jtwc_sh SH192018 -17.3000 173.800 TS 55 993 0 130 140 100 100 68 74 49 49 1007 315 25 -17.3000 173.700 60 975 13 107
2018096S15172 2018 19 SP MM KENI 2018-04-09 15:00:00 TS -17.5121 174.434 main 301 212 P______I______ SH192018 -17.5696 174.513 TS 60 990 0 130 150 100 105 68 80 49 52 1007 307 22 -17.4546 174.356 67 971 15 110
2018096S15172 2018 19 SP MM KENI 2018-04-09 18:00:00 TS -17.8000 175.200 75 967 nadi main 212 128 O_____________ jtwc_sh SH192018 -17.9000 175.300 TY 65 987 1 130 160 100 110 68 87 49 55 36 46 25 29 1007 300 20 -17.7000 175.100 75 967 17 114
2018096S15172 2018 19 SP MM KENI 2018-04-09 21:00:00 TS -18.1945 176.044 main 128 70 P______I______ SH192018 -18.2771 176.155 TY 70 983 1 140 170 100 120 74 93 49 62 39 50 25 32 1007 300 22 -18.1119 175.933 80 963 19 116
2018096S15172 2018 19 SP MM KENI 2018-04-10 00:00:00 TS -18.6500 177.000 85 960 nadi main 64 67 O_____________ jtwc_sh SH192018 -18.7000 177.100 TY 75 980 1 150 180 100 130 81 100 50 69 43 54 26 36 1007 300 25 -18.6000 176.900 85 960 21 114
2018096S15172 2018 19 SP MM KENI 2018-04-10 03:00:00 TS -19.0475 178.079 main 78 78 P______I______ SH192018 -19.0822 178.122 TY 82 974 1 160 180 100 140 88 100 50 75 47 54 26 40 1006 300 18 -19.0129 178.036 85 960 23 113
2018096S15172 2018 19 SP MM KENI 2018-04-10 06:00:00 TS -19.5500 179.200 85 960 nadi main 165 165 O_____________ jtwc_sh SH192018 -19.6000 179.200 TY 90 968 2 170 180 100 150 95 101 50 82 51 54 26 44 1006 300 12 15 -19.5000 179.200 85 960 24 120
2018096S15172 2018 19 SP MM KENI 2018-04-10 09:00:00 TS -20.2341 180.244 main 282 282 P______I______ SH192018 -20.3748 -179.692 TY 87 968 2 180 185 110 160 101 104 56 88 54 56 29 47 1005 290 18 -20.0933 -179.820 80 963 25 128
2018096S15172 2018 19 SP MM KENI 2018-04-10 12:00:00 TS -21.1000 181.300 75 967 nadi main 432 432 O_____________ jtwc_sh SH192018 -21.3000 -178.600 TY 85 968 2 190 190 120 170 107 107 63 94 58 58 33 51 1004 280 25 -20.9000 -178.800 75 967 28 132
2018096S15172 2018 19 SP MM KENI 2018-04-10 15:00:00 TS -22.1170 182.494 main 597 597 P______I______ SH192018 -22.2195 -177.561 TY 80 969 1 200 190 120 170 113 106 62 94 61 57 33 50 1002 235 25 -22.0144 -177.451 72 968 30 135
2018096S15172 2018 19 SP MM KENI 2018-04-10 18:00:00 TS -23.2000 183.571 70 970 nadi main 764 764 O_____________ jtwc_sh SH192018 -23.2000 -176.600 TY 75 970 1 210 190 120 170 119 106 62 94 64 57 33 50 1001 190 25 -23.2000 -176.200 70 970 27 140
2018096S15172 2018 19 SP MM KENI 2018-04-10 21:00:00 TS -24.2214 184.382 main 902 902 P______I______ SH192018 -24.2267 -175.726 TY 70 972 1 220 200 125 170 125 112 65 93 67 60 34 50 1001 190 30 -24.2109 -175.403 67 970 25 146
2018096S15172 2018 19 SP MM KENI 2018-04-11 00:00:00 TS -25.2333 185.083 65 979 wellington main 1032 1032 O_______O_____ jtwc_sh SH192018 -25.3000 -174.900 TY 65 975 1 230 210 130 170 131 118 68 93 71 64 36 50 1001 190 35 -25.1000 -174.900 65 970 -25.1000 -175.000 65 979 26 147
2018096S15172 2018 19 SP MM KENI 2018-04-11 03:00:00 TS -26.3813 185.909 main 1186 1186 P_______P_____ SH192018 -26.3393 -174.062 TY 62 975 0 230 210 130 170 131 118 68 93 1000 190 35 -26.4652 -174.149 62 979 29 147
2018096S15172 2018 19 SP MM KENI 2018-04-11 06:00:00 TS -27.6286 186.800 60 980 wellington main 1346 1292 O_______O_____ jtwc_sh SH192018 -27.5000 -173.200 TS 60 975 0 230 210 130 170 131 118 68 93 1000 190 35 -27.8000 -173.200 60 980 31 147
2018096S15172 2018 19 SP MM KENI 2018-04-11 09:00:00 TS -28.9913 187.803 main 1290 1232 P_______P_____ SH192018 -28.8520 -172.284 TS 57 976 0 210 190 125 145 118 105 64 77 1000 190 35 -29.1306 -172.110 29 980 35 148
2018096S15172 2018 19 SP MM KENI 2018-04-11 12:00:00 ET -30.5714 188.871 980 wellington main 1231 1187 O_______O_____ jtwc_sh SH192018 -30.4000 -171.300 EX 55 977 -4 190 170 120 120 105 93 61 61 1000 190 35 -30.7000 -171.000 -1 980 41 152
2018096S15172 2018 19 SP MM KENI 2018-04-11 15:00:00 ET -32.5491 190.025 main 1184 1149 P_______P_____ SH192018 -32.1094 -170.235 EX 52 975 -4 145 155 110 100 76 83 54 48 996 190 37 -32.7689 -169.845 -1 982 46 157
2018096S15172 2018 19 SP MM KENI 2018-04-11 18:00:00 ET -34.7800 190.980 984 wellington main 1154 1107 O_______O_____ jtwc_sh SH192018 -33.9000 -169.100 EX 50 973 -4 100 140 100 80 48 74 48 36 993 190 40 -35.0000 -169.000 -1 984 44 169
2018096S15172 2018 19 SP MM KENI 2018-04-11 21:00:00 NR -36.8717 191.095 main 1105 1084 ________P_____ SH192018 EX -4 -36.8717 -168.905 -1 983 42 0
2018096S15172 2018 19 SP MM KENI 2018-04-12 00:00:00 NR -39.0000 191.000 982 wellington main 1087 1087 ________O_____ -39.0000 -169.000 -1 982 51 177
2018096S15172 2018 19 SP MM KENI 2018-04-12 03:00:00 NR -41.9268 191.482 main 1178 1178 ________P_____ -41.9268 -168.518 -1 979 61 173
2018096S15172 2018 19 SP MM KENI 2018-04-12 06:00:00 NR -45.0000 192.000 976 wellington main 1317 1317 ________O_____ -45.0000 -168.000 -1 976 57 175
2018096S15172 2018 19 SP MM KENI 2018-04-12 09:00:00 NR -47.6474 192.143 main 1455 1455 ________P_____ -47.6474 -167.857 -1 973 50 0
2018096S15172 2018 19 SP MM KENI 2018-04-12 12:00:00 NR -50.0000 192.000 970 wellington main 1573 ________O_____ -50.0000 -168.000 -1 970 47 182

Digital Typhoon Data and Search

About IBTrACS Database

This database is a web-friendly format of International Best Track Archive for Climate Stewardship (IBTrACS), a global best track data archive curated by NOAA dating back to 1842.

Updated: 2021-10-21